Aviation Digital Data Service (ADDS)

Output produced by METARs form (0511 UTC 20 April 2018)
found at http://aviationweather.gov/adds/metars/
 
METAR text: EPWA 200500Z 32004KT CAVOK 09/05 Q1028 NOSIG
Conditions at: EPWA (WARSAW/OKECIE , PL) observed 0500 UTC 20 April 2018
Temperature: 9.0°C (48°F)
Dewpoint: 5.0°C (41°F) [RH = 76%]
Pressure (altimeter): 30.35 inches Hg (1028.0 mb)
Winds: from the NW (320 degrees) at 5 MPH (4 knots; 2.1 m/s)
Visibility: 6 or more miles (10+ km)
Ceiling: ceiling and visibility are OK
Clouds: unknown
Weather: no significant weather observed at this time

Forecast for: EPWA (WARSAW/OKECIE , PL)
Text: TAF EPWA 200230Z 2003/2103 32004KT CAVOK
Forecast period: 0300 UTC 20 April 2018 to 0300 UTC 21 April 2018
Forecast type: FROM: standard forecast or significant change
Winds: from the NW (320 degrees) at 5 MPH (4 knots; 2.1 m/s)
Visibility: 6 or more miles (10+ km)
Clouds: not forecast
Weather: NSW  (no significant weather)
Forecast for: EPWA (WARSAW/OKECIE , PL)
Text: TAF EPWA 200230Z 2003/2103 32004KT CAVOK
Forecast period: 0300 UTC 20 April 2018 to 0300 UTC 21 April 2018
Forecast type: FROM: standard forecast or significant change
Winds: from the NW (320 degrees) at 5 MPH (4 knots; 2.1 m/s)
Visibility: 6 or more miles (10+ km)
Clouds: not forecast
Weather: NSW  (no significant weather)